Time;durP1;ratioP1;P1;durP2;ratioP2;P2;SDS_P1;SDS_P2;PMS_P1;PMS_P2;Temp;Humidity;BMP_temperature;BMP_pressure;BME280_temperature;BME280_humidity;BME280_pressure;Samples;Min_cycle;Max_cycle;Signal;HPM_P1;HPM_P2
2021/04/28 04:24:39;;;;;;;40.17;22.52;;;;;;;11.04;57.52;99927.94;5280156;26;20156;-80
2021/04/28 04:27:08;;;;;;;28.73;20.05;;;;;;;10.87;58.66;99925.56;5283087;27;20044;-80
2021/04/28 04:51:56;;;;;;;21.15;16.50;;;;;;;13.04;54.32;99929.41;5263501;26;20049;-80
2021/04/28 04:54:43;;;;;;;20.88;15.70;;;;;;;13.59;52.32;99926.34;5264428;27;20034;-80
2021/04/28 04:57:13;;;;;;;23.17;17.90;;;;;;;13.96;51.02;99925.34;5245350;27;20034;-80
2021/04/28 04:59:39;;;;;;;21.65;18.37;;;;;;;14.09;51.23;99928.53;5263884;27;20022;-81
2021/04/28 05:32:40;;;;;;;25.55;19.98;;;;;;;11.01;60.51;99935.88;5249513;27;20085;-82
2021/04/28 05:35:11;;;;;;;29.35;21.45;;;;;;;10.88;60.83;99932.56;5258515;27;20113;-80
2021/04/28 05:37:38;;;;;;;23.70;19.62;;;;;;;11.11;59.81;99940.09;5259192;27;20073;-81
2021/04/28 05:40:06;;;;;;;27.48;20.35;;;;;;;11.78;57.86;99930.22;5241234;27;20139;-81
2021/04/28 05:42:35;;;;;;;27.90;19.75;;;;;;;11.09;59.67;99931.38;5240528;27;20073;-81
2021/04/28 05:45:05;;;;;;;31.75;22.48;;;;;;;11.65;58.16;99925.19;5257056;27;20061;-81
2021/04/28 05:47:32;;;;;;;30.50;22.80;;;;;;;11.58;57.82;99932.31;5257822;27;20066;-80
2021/04/28 05:49:58;;;;;;;31.45;23.10;;;;;;;11.77;58.02;99928.50;5257194;27;20041;-80
2021/04/28 05:52:45;;;;;;;24.02;18.73;;;;;;;12.00;56.79;99930.72;5259765;27;20057;-81
2021/04/28 05:55:32;;;;;;;25.02;19.62;;;;;;;12.02;56.82;99934.19;5267824;27;20058;-81
2021/04/28 05:58:09;;;;;;;26.95;19.52;;;;;;;11.61;58.33;99929.66;5261947;27;20030;-81
2021/04/28 06:00:38;;;;;;;27.13;20.67;;;;;;;11.83;56.98;99924.87;5269162;27;20040;-85
2021/04/28 06:03:04;;;;;;;24.65;21.10;;;;;;;12.28;56.39;99928.41;5266409;27;20023;-86
2021/04/28 06:05:32;;;;;;;22.27;19.10;;;;;;;12.53;56.28;99927.03;5262231;27;20439;-82
2021/04/28 06:07:58;;;;;;;24.77;19.58;;;;;;;12.57;56.35;99923.44;5262221;27;20442;-81
2021/04/28 06:11:14;;;;;;;22.30;18.15;;;;;;;12.37;55.81;99934.41;5261724;27;20789;-81
2021/04/28 06:14:43;;;;;;;27.52;19.08;;;;;;;12.98;53.98;99933.06;5237501;27;20096;-81
2021/04/28 06:18:11;;;;;;;25.60;19.62;;;;;;;13.10;53.47;99932.78;5182688;27;20495;-86
2021/04/28 06:20:42;;;;;;;21.98;18.00;;;;;;;13.14;52.90;99936.19;5223099;27;20132;-87
2021/04/28 06:23:19;;;;;;;22.98;17.58;;;;;;;13.29;52.37;99935.84;5247106;27;20038;-80
2021/04/28 06:32:10;;;;;;;20.58;17.23;;;;;;;14.01;50.43;99934.03;5257227;27;20134;-86
2021/04/28 06:35:18;;;;;;;23.38;16.87;;;;;;;12.88;52.59;99935.06;5199429;27;20036;-87
2021/04/28 06:38:40;;;;;;;22.77;17.65;;;;;;;13.15;52.18;99936.19;5122690;28;20032;-80
2021/04/28 07:03:41;;;;;;;20.27;16.75;;;;;;;13.06;52.51;99949.59;5137648;27;20110;-79
2021/04/28 07:14:20;;;;;;;18.67;13.73;;;;;;;13.48;51.31;99940.72;5107413;27;20044;-81
2021/04/28 07:17:44;;;;;;;22.30;14.77;;;;;;;13.81;50.27;99939.81;5078051;28;20097;-84
2021/04/28 07:31:58;;;;;;;;;;;;;;;;;;;;;
2021/04/28 07:35:06;;;;;;;19.52;11.82;;;;;;;13.83;43.97;99953.88;5128543;27;20064;-80
2021/04/28 07:42:00;;;;;;;14.82;10.52;;;;;;;13.00;47.17;99944.44;5185802;27;20432;-83
2021/04/28 07:45:05;;;;;;;19.60;10.82;;;;;;;12.69;47.35;99933.72;5228742;27;20702;-82
2021/04/28 07:48:11;;;;;;;14.38;10.77;;;;;;;12.98;47.26;99935.69;5244580;27;20066;-85
2021/04/28 07:51:26;;;;;;;16.52;11.35;;;;;;;13.75;45.05;99940.00;5268971;27;20030;-84
2021/04/28 07:54:58;;;;;;;15.10;11.73;;;;;;;13.69;45.31;99940.16;5267038;27;20045;-85
2021/04/28 08:04:51;;;;;;;14.02;11.73;;;;;;;13.37;46.39;99943.59;5239996;27;262640;-83
2021/04/28 08:07:20;;;;;;;17.42;11.12;;;;;;;13.66;46.65;99949.94;5260198;27;20058;-84
2021/04/28 08:09:47;;;;;;;15.25;11.45;;;;;;;13.88;45.65;99948.44;5238838;27;20072;-81
2021/04/28 14:29:55;;;;;;;15.68;12.10;;;;;;;18.70;39.92;99748.25;5179051;27;20067;-79
2021/04/28 14:32:31;;;;;;;22.42;13.90;;;;;;;19.00;36.83;99750.34;5257575;27;20045;-80
2021/04/28 14:34:58;;;;;;;18.83;13.98;;;;;;;18.33;38.96;99749.19;5264005;27;20802;-80
2021/04/28 14:37:28;;;;;;;;;;;;;;;18.74;38.96;99739.22;5263459;27;20034;-79
2021/04/28 14:39:54;;;;;;;20.12;12.48;;;;;;;19.43;38.40;99750.78;5264992;27;19965;-79
2021/04/28 14:42:20;;;;;;;13.27;11.65;;;;;;;20.10;36.86;99749.84;5263744;27;20082;-79
2021/04/28 14:44:47;;;;;;;17.35;13.52;;;;;;;20.17;37.19;99745.03;5246445;27;20104;-81
2021/04/28 14:47:13;;;;;;;20.00;11.90;;;;;;;20.32;36.73;99741.50;5262854;27;20062;-80
2021/04/28 14:49:43;;;;;;;15.90;11.93;;;;;;;20.73;35.58;99740.09;5264651;27;20022;-80
2021/04/28 14:52:09;;;;;;;19.50;13.30;;;;;;;21.09;35.41;99743.28;5263778;27;20026;-82
2021/04/28 14:54:36;;;;;;;17.37;11.40;;;;;;;21.17;33.95;99737.47;5243069;27;20125;-79
2021/04/28 14:57:03;;;;;;;16.33;12.10;;;;;;;21.45;34.99;99735.84;5243708;27;20098;-79
2021/04/28 14:59:31;;;;;;;15.55;10.65;;;;;;;21.38;34.28;99739.84;5264320;27;20050;-79
2021/04/28 15:01:58;;;;;;;15.55;11.55;;;;;;;21.61;33.64;99733.09;5263554;27;20102;-80
2021/04/28 15:04:27;;;;;;;15.50;11.15;;;;;;;21.49;34.31;99724.88;5264189;27;20117;-81
2021/04/28 15:06:53;;;;;;;14.93;11.27;;;;;;;21.71;33.55;99731.56;5262196;27;20097;-81
2021/04/28 15:09:20;;;;;;;14.27;10.55;;;;;;;21.45;33.86;99731.34;5262889;27;20022;-81
2021/04/28 15:11:46;;;;;;;18.73;11.68;;;;;;;21.59;33.42;99734.97;5261689;27;20738;-81
2021/04/28 15:14:14;;;;;;;18.25;10.45;;;;;;;21.96;32.54;99737.06;5260926;27;20074;-81
2021/04/28 15:16:40;;;;;;;13.35;10.23;;;;;;;21.91;32.99;99727.63;5262000;27;20062;-81
2021/04/28 15:19:07;;;;;;;14.25;10.95;;;;;;;21.70;33.12;99730.69;5260387;27;20046;-81
2021/04/28 15:21:34;;;;;;;13.07;9.70;;;;;;;22.03;32.66;99728.66;5263036;27;20041;-81
2021/04/28 15:24:01;;;;;;;18.45;12.27;;;;;;;21.91;32.68;99727.63;5261229;27;20030;-81
2021/04/28 15:26:28;;;;;;;13.10;10.45;;;;;;;21.60;33.04;99728.69;5241667;27;20088;-81
2021/04/28 15:28:54;;;;;;;11.88;9.93;;;;;;;21.46;33.85;99727.72;5243367;27;20073;-80
2021/04/28 15:31:21;;;;;;;15.60;10.63;;;;;;;21.61;33.38;99722.38;5239774;27;20050;-80
2021/04/28 15:33:52;;;;;;;12.55;9.00;;;;;;;21.53;33.95;99728.19;5260211;27;20054;-80
2021/04/28 15:36:18;;;;;;;17.52;10.63;;;;;;;21.51;33.64;99722.97;5259923;27;20079;-80
2021/04/28 15:38:45;;;;;;;13.32;10.45;;;;;;;21.41;33.81;99721.78;5263042;27;20084;-81
2021/04/28 15:41:11;;;;;;;13.98;11.48;;;;;;;21.35;34.18;99721.28;5261098;27;20052;-81
2021/04/28 15:43:38;;;;;;;13.50;9.90;;;;;;;20.95;34.28;99718.37;5261021;27;20120;-81
2021/04/28 15:46:04;;;;;;;12.07;8.90;;;;;;;21.15;34.24;99712.69;5260118;27;20600;-81
2021/04/28 15:48:30;;;;;;;17.55;10.48;;;;;;;20.94;34.80;99725.53;5261420;27;20097;-81
2021/04/28 15:50:57;;;;;;;13.18;9.98;;;;;;;21.06;35.09;99722.12;5243226;27;20030;-81
2021/04/28 15:53:27;;;;;;;14.55;10.10;;;;;;;21.19;34.18;99724.03;5261257;27;20062;-81
2021/04/28 15:55:54;;;;;;;13.88;10.07;;;;;;;21.02;34.41;99723.22;5260456;27;20061;-81
2021/04/28 15:58:20;;;;;;;16.70;10.10;;;;;;;21.00;34.51;99719.81;5261980;27;20068;-82
2021/04/28 16:00:51;;;;;;;13.80;10.63;;;;;;;20.99;35.17;99720.75;5263402;27;20110;-81
2021/04/28 16:03:17;;;;;;;16.87;11.10;;;;;;;20.90;34.83;99717.75;5261683;27;20085;-81
2021/04/28 16:05:44;;;;;;;13.55;9.77;;;;;;;20.72;35.29;99714.38;5261791;27;20073;-81
2021/04/28 16:08:14;;;;;;;12.82;8.40;;;;;;;20.94;34.88;99713.94;5262076;27;20049;-83
2021/04/28 16:10:40;;;;;;;16.10;10.30;;;;;;;20.94;35.31;99714.84;5260403;27;20706;-80
2021/04/28 16:13:07;;;;;;;14.90;9.48;;;;;;;20.85;35.25;99705.56;5242110;27;20161;-83
2021/04/28 16:15:33;;;;;;;15.30;10.50;;;;;;;20.86;34.75;99709.09;5263405;27;20040;-81
2021/04/28 16:17:59;;;;;;;15.60;10.38;;;;;;;20.83;35.01;99711.94;5261328;27;20041;-81
2021/04/28 16:45:49;;;;;;;13.23;10.75;;;;;;;20.72;35.50;99703.69;5281128;27;20121;-81
2021/04/28 16:48:15;;;;;;;14.50;10.40;;;;;;;20.66;35.30;99704.06;5284286;27;20115;-81
2021/04/28 16:50:42;;;;;;;15.82;10.48;;;;;;;20.75;35.12;99699.03;5263853;27;20092;-81
2021/04/28 16:53:13;;;;;;;14.45;11.38;;;;;;;20.65;35.50;99700.53;5264373;27;20033;-81
2021/04/28 16:55:40;;;;;;;14.20;10.63;;;;;;;20.70;35.33;99708.25;5283165;27;20451;-82
2021/04/28 16:58:06;;;;;;;16.23;11.60;;;;;;;20.79;35.18;99708.56;5283920;27;20045;-81
2021/04/28 17:00:33;;;;;;;16.20;11.40;;;;;;;20.54;35.79;99709.16;5282720;27;20080;-81
2021/04/28 17:02:59;;;;;;;13.43;11.00;;;;;;;20.56;35.86;99709.06;5285435;27;20072;-80
2021/04/28 17:05:50;;;;;;;16.33;12.30;;;;;;;20.66;35.69;99699.56;5282786;27;20057;-81
2021/04/28 17:08:16;;;;;;;15.35;11.95;;;;;;;20.42;36.21;99702.69;5283236;27;20036;-81
2021/04/28 17:10:43;;;;;;;19.95;13.35;;;;;;;20.37;36.31;99702.06;5283398;27;20044;-81
2021/04/28 17:13:09;;;;;;;24.08;15.77;;;;;;;20.46;36.42;99703.37;5282902;27;20063;-80
2021/04/28 17:15:35;;;;;;;26.25;17.83;;;;;;;20.50;36.23;99709.38;5281959;27;20065;-81
2021/04/28 17:18:02;;;;;;;15.45;12.25;;;;;;;20.51;36.09;99705.78;5283544;27;20121;-81
2021/04/28 17:20:28;;;;;;;13.43;9.25;;;;;;;20.51;36.00;99701.28;5283987;27;20072;-80
2021/04/28 17:22:54;;;;;;;17.15;11.60;;;;;;;20.43;36.40;99707.06;5263702;27;20818;-82
2021/04/28 17:25:21;;;;;;;16.00;10.35;;;;;;;20.31;36.32;99704.25;5261835;27;20624;-81
2021/04/28 17:27:47;;;;;;;14.35;11.10;;;;;;;20.41;35.95;99700.09;5279694;27;20073;-81
2021/04/28 17:30:26;;;;;;;14.95;11.90;;;;;;;20.07;36.32;99710.03;5280881;27;20640;-80
2021/04/28 17:32:54;;;;;;;13.95;10.27;;;;;;;20.06;36.87;99708.31;5282130;27;20037;-81
2021/04/28 17:35:20;;;;;;;15.80;11.18;;;;;;;20.12;36.45;99702.63;5282861;27;20107;-80
2021/04/28 17:37:47;;;;;;;14.38;11.10;;;;;;;20.04;36.90;99707.53;5281687;27;20081;-81
2021/04/28 17:40:16;;;;;;;15.70;10.63;;;;;;;20.10;36.75;99709.84;5281691;27;20365;-81
2021/04/28 17:42:45;;;;;;;14.13;11.77;;;;;;;19.95;37.05;99708.03;5284985;27;20054;-81
2021/04/28 17:45:12;;;;;;;17.20;11.12;;;;;;;19.99;37.34;99706.06;5283501;27;20124;-81
2021/04/28 17:47:41;;;;;;;15.27;11.07;;;;;;;19.95;37.46;99706.22;5281433;27;20053;-80
2021/04/28 17:50:09;;;;;;;11.60;8.82;;;;;;;19.98;37.60;99713.19;5282417;27;20762;-83
2021/04/28 17:52:36;;;;;;;17.80;11.77;;;;;;;19.81;37.82;99710.59;5281818;27;20060;-80
2021/04/28 17:55:04;;;;;;;15.35;11.82;;;;;;;19.79;38.31;99713.34;5282810;27;20045;-83
2021/04/28 17:57:32;;;;;;;17.95;13.38;;;;;;;19.59;38.73;99708.19;5282471;27;20105;-80
2021/04/28 17:59:58;;;;;;;16.77;12.60;;;;;;;19.31;39.49;99711.50;5282310;27;20061;-81
2021/04/28 18:02:24;;;;;;;16.80;12.18;;;;;;;19.19;39.78;99715.66;5283980;27;20057;-84
2021/04/28 18:04:51;;;;;;;16.67;13.07;;;;;;;18.88;40.76;99708.38;5263889;27;20073;-80
2021/04/28 18:07:18;;;;;;;20.20;15.45;;;;;;;18.51;41.90;99705.75;5283977;27;20062;-80
2021/04/28 18:09:45;;;;;;;20.67;14.70;;;;;;;16.87;46.82;99720.34;5262293;27;20477;-81
2021/04/28 18:12:14;;;;;;;21.95;15.38;;;;;;;17.05;46.68;99713.38;5283954;27;20068;-80
2021/04/28 18:14:41;;;;;;;18.58;15.50;;;;;;;16.44;48.54;99716.78;5281285;27;20029;-80
2021/04/28 18:17:07;;;;;;;17.23;13.68;;;;;;;17.13;47.27;99711.28;5284701;27;20088;-80
2021/04/28 18:19:34;;;;;;;14.87;10.43;;;;;;;17.27;46.77;99711.53;5283748;27;20117;-81
2021/04/28 18:22:01;;;;;;;16.08;13.13;;;;;;;17.16;46.98;99722.59;5283033;27;20057;-80
2021/04/28 18:24:29;;;;;;;17.27;12.70;;;;;;;17.24;47.03;99719.63;5282465;27;20026;-83
2021/04/28 18:26:55;;;;;;;17.15;11.93;;;;;;;17.45;46.23;99718.66;5263650;27;20073;-80
2021/04/28 18:29:22;;;;;;;13.70;10.98;;;;;;;17.64;45.47;99717.81;5281661;27;20132;-80
2021/04/28 18:31:49;;;;;;;16.85;11.43;;;;;;;17.56;45.89;99715.53;5282534;27;20124;-83
2021/04/28 18:34:15;;;;;;;15.98;12.13;;;;;;;17.79;44.78;99721.59;5281605;27;20121;-81
2021/04/28 18:36:41;;;;;;;18.30;12.43;;;;;;;17.71;44.80;99719.28;5281732;27;20068;-80
2021/04/28 18:39:08;;;;;;;15.85;11.88;;;;;;;17.93;44.55;99717.38;5266305;27;20029;-80
2021/04/28 18:41:35;;;;;;;15.57;11.98;;;;;;;17.91;44.22;99721.03;5280862;27;20088;-80
2021/04/28 18:44:02;;;;;;;15.73;11.77;;;;;;;17.80;44.75;99731.31;5282066;27;20116;-80
2021/04/28 18:46:30;;;;;;;19.15;14.02;;;;;;;17.64;45.30;99731.09;5262754;27;20116;-83
2021/04/28 18:48:57;;;;;;;19.05;13.98;;;;;;;17.57;45.80;99724.38;5282735;27;20155;-80
2021/04/28 18:51:24;;;;;;;16.90;12.90;;;;;;;17.60;46.07;99726.87;5262496;27;20067;-80
2021/04/28 18:53:51;;;;;;;17.83;11.90;;;;;;;17.38;46.77;99733.16;5279788;27;20070;-80
2021/04/28 18:56:17;;;;;;;18.20;13.40;;;;;;;17.60;46.27;99742.81;5283702;27;20069;-80
2021/04/28 18:58:43;;;;;;;13.45;11.82;;;;;;;17.74;46.63;99742.19;5284434;27;20069;-83
2021/04/28 19:01:10;;;;;;;14.38;10.95;;;;;;;17.92;46.08;99742.25;5283673;27;20084;-80
2021/04/28 19:03:37;;;;;;;13.90;10.25;;;;;;;17.98;45.78;99742.91;5283854;27;20025;-80
2021/04/28 19:06:03;;;;;;;13.62;10.65;;;;;;;17.92;45.77;99744.91;5283733;27;20054;-81
2021/04/28 19:08:29;;;;;;;14.13;11.15;;;;;;;17.94;46.03;99739.50;5282711;27;20073;-80
2021/04/28 19:10:56;;;;;;;15.00;11.10;;;;;;;18.00;46.22;99747.22;5262919;27;20100;-80
2021/04/28 19:13:23;;;;;;;11.27;8.57;;;;;;;17.89;46.78;99752.16;5284845;27;20375;-80
2021/04/28 19:15:49;;;;;;;13.68;11.30;;;;;;;17.91;46.32;99753.81;5282983;27;20081;-81
2021/04/28 19:18:16;;;;;;;11.05;8.90;;;;;;;17.90;45.49;99753.88;5283386;27;20121;-80
2021/04/28 19:20:43;;;;;;;15.73;9.27;;;;;;;18.01;45.45;99759.56;5282117;27;20053;-80
2021/04/28 19:23:09;;;;;;;11.48;9.30;;;;;;;18.03;45.71;99757.69;5282877;27;20113;-80
2021/04/28 19:25:36;;;;;;;13.57;9.05;;;;;;;17.88;45.99;99758.38;5282151;27;20110;-81
2021/04/28 19:28:03;;;;;;;11.77;8.18;;;;;;;17.90;46.26;99757.37;5281778;27;20072;-80
2021/04/28 19:30:29;;;;;;;15.27;10.65;;;;;;;17.90;46.09;99753.88;5282902;27;20115;-80
2021/04/28 19:32:56;;;;;;;14.52;9.45;;;;;;;17.77;47.47;99761.50;5286222;27;20042;-81
2021/04/28 19:35:22;;;;;;;17.33;11.15;;;;;;;17.85;46.51;99751.44;5283139;27;20487;-82
2021/04/28 19:37:49;;;;;;;17.48;9.93;;;;;;;17.88;46.07;99747.75;5282185;27;20081;-80
2021/04/28 19:40:16;;;;;;;12.52;9.50;;;;;;;17.97;46.51;99750.00;5284130;27;20155;-81
2021/04/28 19:42:46;;;;;;;15.57;10.57;;;;;;;17.73;46.03;99751.94;5281428;27;20026;-80
2021/04/28 19:45:15;;;;;;;13.85;8.65;;;;;;;17.60;48.28;99745.47;5284717;27;20065;-82
2021/04/28 19:47:42;;;;;;;12.77;9.43;;;;;;;17.56;47.34;99747.41;5281848;27;20072;-80
2021/04/28 19:50:09;;;;;;;13.95;10.27;;;;;;;17.55;48.23;99748.31;5283706;27;20018;-81
2021/04/28 19:52:35;;;;;;;12.98;11.07;;;;;;;17.41;48.77;99753.38;5284731;27;20069;-82
2021/04/28 19:55:04;;;;;;;13.20;9.38;;;;;;;17.47;48.32;99739.81;5282434;27;20077;-80
2021/04/28 19:57:30;;;;;;;15.70;11.02;;;;;;;17.34;48.75;99747.50;5281883;27;20083;-80
2021/04/28 19:59:57;;;;;;;10.85;7.95;;;;;;;17.27;48.78;99746.03;5282308;27;20120;-80
2021/04/28 20:02:23;;;;;;;14.82;10.68;;;;;;;17.22;47.82;99745.38;5281203;27;20127;-81
2021/04/28 20:04:50;;;;;;;10.10;7.00;;;;;;;17.01;48.27;99744.50;5280741;27;20062;-81
2021/04/28 20:07:23;;;;;;;11.35;9.30;;;;;;;16.97;48.22;99741.13;5280602;27;20193;-81
2021/04/28 20:09:51;;;;;;;14.05;10.80;;;;;;;16.86;48.55;99739.84;5261429;27;20067;-83
2021/04/28 20:12:18;;;;;;;13.43;10.27;;;;;;;16.75;49.44;99740.25;5261473;27;20411;-81
2021/04/28 20:14:46;;;;;;;15.52;10.45;;;;;;;16.56;50.46;99735.72;5283925;27;20115;-82
2021/04/28 20:17:12;;;;;;;15.20;10.68;;;;;;;16.76;50.53;99740.22;5281752;27;20045;-83
2021/04/28 20:19:39;;;;;;;16.98;12.45;;;;;;;16.80;49.64;99736.53;5281809;27;20101;-81
2021/04/28 20:22:05;;;;;;;12.68;10.23;;;;;;;16.24;53.27;99741.47;5283234;27;20644;-82
2021/04/28 20:24:33;;;;;;;14.43;11.20;;;;;;;16.22;53.32;99735.34;5284430;27;20655;-83
2021/04/28 20:26:59;;;;;;;15.00;12.40;;;;;;;16.40;51.67;99745.22;5280646;27;20057;-81
2021/04/28 20:29:26;;;;;;;16.33;10.35;;;;;;;16.47;51.94;99746.72;5282874;27;20030;-81
2021/04/28 20:31:52;;;;;;;12.70;11.23;;;;;;;16.54;52.06;99742.00;5282101;27;20125;-82
2021/04/28 20:34:18;;;;;;;16.08;11.63;;;;;;;16.52;51.25;99742.06;5263168;27;20065;-84
2021/04/28 20:36:45;;;;;;;15.18;12.40;;;;;;;16.47;51.11;99746.72;5282402;27;20089;-81
2021/04/28 20:39:11;;;;;;;17.65;12.40;;;;;;;15.78;55.17;99745.88;5281300;27;20057;-81
2021/04/28 20:41:38;;;;;;;19.87;12.88;;;;;;;16.40;53.03;99747.88;5281267;27;20101;-81
2021/04/28 20:44:04;;;;;;;18.58;13.65;;;;;;;15.85;54.96;99737.66;5263080;27;20105;-84
2021/04/28 20:46:31;;;;;;;11.45;9.48;;;;;;;15.48;56.25;99740.75;5280071;27;20089;-81
2021/04/28 20:48:57;;;;;;;15.70;12.88;;;;;;;16.04;53.69;99748.41;5280847;27;20817;-81
2021/04/28 20:51:24;;;;;;;15.32;12.32;;;;;;;16.29;52.29;99744.78;5281177;27;20045;-81
2021/04/28 20:53:51;;;;;;;20.10;13.40;;;;;;;16.22;53.59;99745.94;5280702;27;20041;-81
2021/04/28 20:56:17;;;;;;;14.43;10.25;;;;;;;16.29;53.42;99744.78;5282921;27;20117;-81
2021/04/28 20:58:43;;;;;;;14.35;10.60;;;;;;;16.26;53.46;99739.59;5280265;27;20057;-81
2021/04/28 21:01:10;;;;;;;16.10;12.40;;;;;;;16.34;52.30;99743.66;5282983;27;21263;-81
2021/04/28 21:03:36;;;;;;;12.82;9.90;;;;;;;16.26;52.61;99742.25;5282885;27;20058;-82
2021/04/28 21:06:03;;;;;;;16.77;12.10;;;;;;;16.25;52.50;99743.19;5282304;27;20365;-81
2021/04/28 21:08:29;;;;;;;15.52;12.23;;;;;;;16.30;53.03;99738.56;5281411;27;20141;-80
2021/04/28 21:10:57;;;;;;;21.00;14.05;;;;;;;16.28;53.87;99743.91;5285439;27;20073;-81
2021/04/28 21:13:27;;;;;;;17.12;13.75;;;;;;;15.83;55.67;99743.91;5282422;27;20065;-81
2021/04/28 21:15:58;;;;;;;19.73;12.95;;;;;;;15.32;57.86;99747.50;5283567;27;20057;-80
2021/04/28 21:18:25;;;;;;;19.40;13.70;;;;;;;15.50;57.39;99745.97;5283796;27;20030;-81
2021/04/28 21:20:51;;;;;;;15.57;12.88;;;;;;;15.41;57.69;99741.87;5264780;27;20057;-81
2021/04/28 21:23:17;;;;;;;18.05;13.27;;;;;;;15.52;57.64;99738.84;5281301;27;20061;-80
2021/04/28 21:25:45;;;;;;;18.35;13.23;;;;;;;15.20;58.58;99738.22;5283110;27;20082;-82
2021/04/28 21:28:11;;;;;;;17.85;13.62;;;;;;;15.16;59.01;99736.63;5281537;27;20083;-82
2021/04/28 21:30:39;;;;;;;19.12;14.15;;;;;;;15.24;58.81;99741.66;5283579;27;20026;-82
2021/04/28 21:33:06;;;;;;;17.73;14.30;;;;;;;15.01;59.98;99742.44;5262067;27;20132;-80
2021/04/28 21:35:32;;;;;;;22.92;14.52;;;;;;;14.84;60.53;99735.94;5261222;27;20029;-80
2021/04/28 21:37:58;;;;;;;21.20;14.23;;;;;;;14.14;63.11;99738.19;5282040;27;20325;-82
2021/04/28 21:40:25;;;;;;;16.77;14.00;;;;;;;14.20;63.14;99744.13;5281737;27;20060;-81
2021/04/28 21:42:51;;;;;;;21.60;15.35;;;;;;;14.26;63.22;99743.06;5281743;27;20477;-83
2021/04/28 21:45:18;;;;;;;17.52;14.77;;;;;;;13.89;64.33;99743.34;5281102;27;20065;-83
2021/04/28 21:47:45;;;;;;;20.23;15.82;;;;;;;14.29;63.14;99735.94;5282091;27;20057;-80
2021/04/28 21:50:13;;;;;;;21.15;16.02;;;;;;;13.94;64.66;99738.78;5279732;27;20048;-80
2021/04/28 21:52:40;;;;;;;21.25;16.25;;;;;;;14.46;62.98;99738.03;5281628;27;20083;-80
2021/04/28 21:55:10;;;;;;;23.27;15.20;;;;;;;14.17;63.93;99738.94;5281116;27;20030;-81
2021/04/28 21:57:37;;;;;;;21.77;15.65;;;;;;;13.92;64.81;99748.53;5281055;27;20085;-80
2021/04/28 22:00:10;;;;;;;22.37;16.27;;;;;;;14.27;63.51;99743.03;5281099;27;20108;-80
2021/04/28 22:02:36;;;;;;;21.92;15.82;;;;;;;14.32;63.38;99742.87;5280473;27;20423;-83
2021/04/28 22:05:04;;;;;;;23.98;18.37;;;;;;;14.14;64.10;99743.47;5281890;27;20072;-80
2021/04/28 22:07:30;;;;;;;20.70;16.48;;;;;;;14.06;64.23;99734.00;5281576;27;20025;-80
2021/04/28 22:09:57;;;;;;;21.52;16.58;;;;;;;14.16;64.00;99731.09;5280406;27;20212;-80
2021/04/28 22:12:25;;;;;;;23.38;16.70;;;;;;;13.94;65.00;99736.13;5261676;27;20029;-80
2021/04/28 22:14:51;;;;;;;22.45;16.48;;;;;;;14.00;65.04;99731.56;5280966;27;20058;-80
2021/04/28 22:17:18;;;;;;;21.08;16.00;;;;;;;14.13;64.72;99723.25;5278400;27;20420;-80
2021/04/28 22:19:45;;;;;;;22.73;17.02;;;;;;;14.38;63.72;99723.31;5279883;27;20102;-81
2021/04/28 22:22:12;;;;;;;22.58;16.52;;;;;;;14.53;63.04;99722.88;5280795;27;20476;-81
2021/04/28 22:24:40;;;;;;;22.50;17.17;;;;;;;14.27;64.03;99721.03;5279885;27;20117;-82
2021/04/28 22:27:07;;;;;;;20.12;16.25;;;;;;;14.10;65.04;99734.78;5279527;27;20136;-81
2021/04/28 22:29:33;;;;;;;20.90;14.50;;;;;;;14.42;63.34;99725.84;5279082;27;20052;-83
2021/04/28 22:32:00;;;;;;;25.05;16.95;;;;;;;14.90;60.99;99732.22;5271890;27;20577;-81
2021/04/28 22:34:27;;;;;;;21.17;16.50;;;;;;;14.80;62.70;99730.81;5280143;27;20116;-81
2021/04/28 22:36:53;;;;;;;27.23;18.77;;;;;;;14.55;63.44;99728.97;5279387;27;20074;-81
2021/04/28 22:39:20;;;;;;;25.20;18.10;;;;;;;14.32;64.54;99724.38;5280797;27;20059;-82
2021/04/28 22:41:46;;;;;;;25.35;17.17;;;;;;;14.40;64.12;99711.78;5281598;27;20079;-80
2021/04/28 22:44:13;;;;;;;27.17;18.65;;;;;;;14.47;63.38;99717.75;5280910;27;20061;-81
2021/04/28 22:46:39;;;;;;;32.97;21.42;;;;;;;14.81;62.55;99712.22;5280368;27;20057;-83
2021/04/28 22:49:05;;;;;;;27.65;18.42;;;;;;;13.90;66.67;99722.16;5282507;27;20095;-81
2021/04/28 22:51:32;;;;;;;25.20;17.85;;;;;;;14.52;64.26;99719.34;5282160;27;20415;-81
2021/04/28 22:53:58;;;;;;;25.25;17.92;;;;;;;14.69;61.92;99720.59;5279321;27;20027;-81
2021/04/28 22:56:26;;;;;;;24.48;17.62;;;;;;;14.80;61.74;99721.09;5281245;27;20112;-81
2021/04/28 22:58:52;;;;;;;21.40;16.95;;;;;;;15.05;59.95;99721.09;5280222;27;20059;-82
2021/04/28 23:16:16;;;;;;;23.30;17.15;;;;;;;15.44;59.53;99712.66;5156278;27;20087;-81
